Yaren, Nauru
Current Conditions -  °F | °C
As of 7:00 PM on Friday 28 Nov 2014 (Local Time) from NGTT Reporting Station
Scattered Clouds Scattered Clouds  
Wind Chill: 84°   Ceiling: Unl
Heat Index: 91°   Visibility: 6mi
Dew Point: 73°   Wind: 17mph
Humidity: 70%   Direction: 80°E
Pressure: 29.68"   Gusts: NA
Location:  0.55°S, 166.91°E
Report Text: NGTT 280700Z 08015KT 9999 SCT020 29/23 Q1005
Loading
Personal Weather Stations






























Interactive Weather Map New forecast layout! Learn more

10-Day Weather Forecast

Advertisements
Track Severe Weather on mobile